sensor_id;sensor_type;location;lat;lon;timestamp;temperature;humidity
55211;DHT22;41082;52.822;6.666;2023-02-03T00:01:08;9.00;99.90
55211;DHT22;41082;52.822;6.666;2023-02-03T00:03:33;9.00;99.90
55211;DHT22;41082;52.822;6.666;2023-02-03T00:06:01;9.00;99.90
55211;DHT22;41082;52.822;6.666;2023-02-03T00:08:27;9.00;99.90
55211;DHT22;41082;52.822;6.666;2023-02-03T00:10:53;9.10;99.90
55211;DHT22;41082;52.822;6.666;2023-02-03T00:13:19;9.10;99.90
55211;DHT22;41082;52.822;6.666;2023-02-03T00:15:44;9.10;99.90
55211;DHT22;41082;52.822;6.666;2023-02-03T00:18:10;9.10;99.90
55211;DHT22;41082;52.822;6.666;2023-02-03T00:20:35;9.20;99.90
55211;DHT22;41082;52.822;6.666;2023-02-03T00:23:05;9.20;99.90
55211;DHT22;41082;52.822;6.666;2023-02-03T00:25:32;9.10;99.90
55211;DHT22;41082;52.822;6.666;2023-02-03T00:27:57;9.10;99.90
55211;DHT22;41082;52.822;6.666;2023-02-03T00:30:23;9.10;99.90
55211;DHT22;41082;52.822;6.666;2023-02-03T00:32:49;9.10;99.90
55211;DHT22;41082;52.822;6.666;2023-02-03T00:35:14;9.10;99.90
55211;DHT22;41082;52.822;6.666;2023-02-03T00:37:40;9.10;99.90
55211;DHT22;41082;52.822;6.666;2023-02-03T00:40:06;9.00;99.90
55211;DHT22;41082;52.822;6.666;2023-02-03T00:42:33;9.00;99.90
55211;DHT22;41082;52.822;6.666;2023-02-03T00:44:59;9.00;99.90
55211;DHT22;41082;52.822;6.666;2023-02-03T00:47:25;9.00;99.90
55211;DHT22;41082;52.822;6.666;2023-02-03T00:49:51;9.00;99.90
55211;DHT22;41082;52.822;6.666;2023-02-03T00:52:16;9.00;99.90
55211;DHT22;41082;52.822;6.666;2023-02-03T00:54:42;9.00;99.90
55211;DHT22;41082;52.822;6.666;2023-02-03T00:57:07;9.00;99.90
55211;DHT22;41082;52.822;6.666;2023-02-03T00:59:33;8.90;99.90
55211;DHT22;41082;52.822;6.666;2023-02-03T01:01:59;9.00;99.90
55211;DHT22;41082;52.822;6.666;2023-02-03T01:04:24;8.90;99.90
55211;DHT22;41082;52.822;6.666;2023-02-03T01:06:50;8.90;99.90
55211;DHT22;41082;52.822;6.666;2023-02-03T01:09:16;9.00;99.90
55211;DHT22;41082;52.822;6.666;2023-02-03T01:11:41;9.00;99.90
55211;DHT22;41082;52.822;6.666;2023-02-03T01:14:07;9.00;99.90
55211;DHT22;41082;52.822;6.666;2023-02-03T01:16:32;8.90;99.90
55211;DHT22;41082;52.822;6.666;2023-02-03T01:19:02;8.90;99.90
55211;DHT22;41082;52.822;6.666;2023-02-03T01:21:28;9.00;99.90
55211;DHT22;41082;52.822;6.666;2023-02-03T01:23:53;9.00;99.90
55211;DHT22;41082;52.822;6.666;2023-02-03T01:26:20;9.00;99.90
55211;DHT22;41082;52.822;6.666;2023-02-03T01:28:51;9.00;99.90
55211;DHT22;41082;52.822;6.666;2023-02-03T01:31:20;9.00;99.90
55211;DHT22;41082;52.822;6.666;2023-02-03T01:33:46;9.00;99.90
55211;DHT22;41082;52.822;6.666;2023-02-03T01:36:14;9.00;99.90
55211;DHT22;41082;52.822;6.666;2023-02-03T01:38:40;8.90;99.90
55211;DHT22;41082;52.822;6.666;2023-02-03T01:41:09;9.00;99.90
55211;DHT22;41082;52.822;6.666;2023-02-03T01:43:40;8.90;99.90
55211;DHT22;41082;52.822;6.666;2023-02-03T01:48:57;8.90;99.90
55211;DHT22;41082;52.822;6.666;2023-02-03T01:51:25;8.90;99.90
55211;DHT22;41082;52.822;6.666;2023-02-03T01:53:52;8.90;99.90
55211;DHT22;41082;52.822;6.666;2023-02-03T01:56:18;8.90;99.90
55211;DHT22;41082;52.822;6.666;2023-02-03T01:58:45;8.90;99.90
55211;DHT22;41082;52.822;6.666;2023-02-03T02:01:11;8.90;99.90
55211;DHT22;41082;52.822;6.666;2023-02-03T02:03:40;8.90;99.90
55211;DHT22;41082;52.822;6.666;2023-02-03T02:06:09;8.90;99.90
55211;DHT22;41082;52.822;6.666;2023-02-03T02:08:35;8.90;99.90
55211;DHT22;41082;52.822;6.666;2023-02-03T02:11:01;8.90;99.90
55211;DHT22;41082;52.822;6.666;2023-02-03T02:13:30;8.90;99.90
55211;DHT22;41082;52.822;6.666;2023-02-03T02:16:17;8.90;99.90
55211;DHT22;41082;52.822;6.666;2023-02-03T02:19:15;8.90;99.90
55211;DHT22;41082;52.822;6.666;2023-02-03T02:24:16;8.90;99.90
55211;DHT22;41082;52.822;6.666;2023-02-03T02:27:01;8.90;99.90
55211;DHT22;41082;52.822;6.666;2023-02-03T02:37:53;8.90;99.90
55211;DHT22;41082;52.822;6.666;2023-02-03T02:40:46;8.80;99.90
55211;DHT22;41082;52.822;6.666;2023-02-03T02:43:22;8.90;99.90
55211;DHT22;41082;52.822;6.666;2023-02-03T02:45:53;8.80;99.90
55211;DHT22;41082;52.822;6.666;2023-02-03T02:48:34;8.90;99.90
55211;DHT22;41082;52.822;6.666;2023-02-03T02:51:02;8.80;99.90
55211;DHT22;41082;52.822;6.666;2023-02-03T02:53:33;8.90;99.90
55211;DHT22;41082;52.822;6.666;2023-02-03T02:56:03;8.80;99.90
55211;DHT22;41082;52.822;6.666;2023-02-03T02:58:31;8.80;99.90
55211;DHT22;41082;52.822;6.666;2023-02-03T03:00:58;8.80;99.90
55211;DHT22;41082;52.822;6.666;2023-02-03T03:03:24;8.80;99.90
55211;DHT22;41082;52.822;6.666;2023-02-03T03:05:53;8.80;99.90
55211;DHT22;41082;52.822;6.666;2023-02-03T03:08:22;8.80;99.90
55211;DHT22;41082;52.822;6.666;2023-02-03T03:10:49;8.80;99.90
55211;DHT22;41082;52.822;6.666;2023-02-03T03:13:21;8.80;99.90
55211;DHT22;41082;52.822;6.666;2023-02-03T03:15:50;8.80;99.90
55211;DHT22;41082;52.822;6.666;2023-02-03T03:18:25;8.70;99.90
55211;DHT22;41082;52.822;6.666;2023-02-03T03:20:52;8.80;99.90
55211;DHT22;41082;52.822;6.666;2023-02-03T03:23:26;8.80;99.90
55211;DHT22;41082;52.822;6.666;2023-02-03T03:26:19;8.90;99.90
55211;DHT22;41082;52.822;6.666;2023-02-03T03:28:51;8.90;99.90
55211;DHT22;41082;52.822;6.666;2023-02-03T03:31:20;8.90;99.90
55211;DHT22;41082;52.822;6.666;2023-02-03T03:33:46;8.90;99.90
55211;DHT22;41082;52.822;6.666;2023-02-03T03:36:41;8.90;99.90
55211;DHT22;41082;52.822;6.666;2023-02-03T03:42:03;8.90;99.90
55211;DHT22;41082;52.822;6.666;2023-02-03T03:44:47;9.00;99.90
55211;DHT22;41082;52.822;6.666;2023-02-03T03:47:22;9.00;99.90
55211;DHT22;41082;52.822;6.666;2023-02-03T03:49:49;9.00;99.90
55211;DHT22;41082;52.822;6.666;2023-02-03T03:52:20;8.90;99.90
55211;DHT22;41082;52.822;6.666;2023-02-03T03:54:48;9.00;99.90
55211;DHT22;41082;52.822;6.666;2023-02-03T03:57:27;9.00;99.90
55211;DHT22;41082;52.822;6.666;2023-02-03T03:59:54;8.90;99.90
55211;DHT22;41082;52.822;6.666;2023-02-03T04:02:21;8.90;99.90
55211;DHT22;41082;52.822;6.666;2023-02-03T04:04:48;9.00;99.90
55211;DHT22;41082;52.822;6.666;2023-02-03T04:07:15;9.00;99.90
55211;DHT22;41082;52.822;6.666;2023-02-03T04:09:40;9.00;99.90
55211;DHT22;41082;52.822;6.666;2023-02-03T04:12:22;9.00;99.90
55211;DHT22;41082;52.822;6.666;2023-02-03T04:14:47;9.00;99.90
55211;DHT22;41082;52.822;6.666;2023-02-03T04:17:13;9.00;99.90
55211;DHT22;41082;52.822;6.666;2023-02-03T04:19:39;9.00;99.90
55211;DHT22;41082;52.822;6.666;2023-02-03T04:22:04;9.00;99.90
55211;DHT22;41082;52.822;6.666;2023-02-03T04:24:30;9.00;99.90
55211;DHT22;41082;52.822;6.666;2023-02-03T04:26:55;9.00;99.90
55211;DHT22;41082;52.822;6.666;2023-02-03T04:29:21;9.00;99.90
55211;DHT22;41082;52.822;6.666;2023-02-03T04:31:46;9.00;99.90
55211;DHT22;41082;52.822;6.666;2023-02-03T04:34:12;9.10;99.90
55211;DHT22;41082;52.822;6.666;2023-02-03T04:36:37;9.10;99.90
55211;DHT22;41082;52.822;6.666;2023-02-03T04:39:03;9.10;99.90
55211;DHT22;41082;52.822;6.666;2023-02-03T04:41:29;9.10;99.90
55211;DHT22;41082;52.822;6.666;2023-02-03T04:43:54;9.10;99.90
55211;DHT22;41082;52.822;6.666;2023-02-03T04:46:20;9.10;99.90
55211;DHT22;41082;52.822;6.666;2023-02-03T04:48:45;9.10;99.90
55211;DHT22;41082;52.822;6.666;2023-02-03T04:51:11;9.20;99.90
55211;DHT22;41082;52.822;6.666;2023-02-03T04:53:37;9.20;99.90
55211;DHT22;41082;52.822;6.666;2023-02-03T04:56:02;9.10;99.90
55211;DHT22;41082;52.822;6.666;2023-02-03T04:58:28;9.10;99.90
55211;DHT22;41082;52.822;6.666;2023-02-03T05:00:54;9.10;99.90
55211;DHT22;41082;52.822;6.666;2023-02-03T05:03:20;9.10;99.90
55211;DHT22;41082;52.822;6.666;2023-02-03T05:05:45;9.20;99.90
55211;DHT22;41082;52.822;6.666;2023-02-03T05:08:11;9.10;99.90
55211;DHT22;41082;52.822;6.666;2023-02-03T05:10:37;9.10;99.90
55211;DHT22;41082;52.822;6.666;2023-02-03T05:13:02;9.10;99.90
55211;DHT22;41082;52.822;6.666;2023-02-03T05:15:28;9.10;99.90
55211;DHT22;41082;52.822;6.666;2023-02-03T05:17:54;9.10;99.90
55211;DHT22;41082;52.822;6.666;2023-02-03T05:20:20;9.20;99.90
55211;DHT22;41082;52.822;6.666;2023-02-03T05:22:46;9.20;99.90
55211;DHT22;41082;52.822;6.666;2023-02-03T05:25:12;9.20;99.90
55211;DHT22;41082;52.822;6.666;2023-02-03T05:27:38;9.20;99.90
55211;DHT22;41082;52.822;6.666;2023-02-03T05:30:05;9.20;99.90
55211;DHT22;41082;52.822;6.666;2023-02-03T05:32:31;9.20;99.90
55211;DHT22;41082;52.822;6.666;2023-02-03T05:34:56;9.20;99.90
55211;DHT22;41082;52.822;6.666;2023-02-03T05:37:22;9.20;99.90
55211;DHT22;41082;52.822;6.666;2023-02-03T05:39:48;9.20;99.90
55211;DHT22;41082;52.822;6.666;2023-02-03T05:42:13;9.30;99.90
55211;DHT22;41082;52.822;6.666;2023-02-03T05:44:39;9.30;99.90
55211;DHT22;41082;52.822;6.666;2023-02-03T05:47:04;9.30;99.90
55211;DHT22;41082;52.822;6.666;2023-02-03T05:49:30;9.30;99.90
55211;DHT22;41082;52.822;6.666;2023-02-03T05:51:55;9.20;99.90
55211;DHT22;41082;52.822;6.666;2023-02-03T05:54:21;9.20;99.90
55211;DHT22;41082;52.822;6.666;2023-02-03T05:56:47;9.30;99.90
55211;DHT22;41082;52.822;6.666;2023-02-03T05:59:12;9.30;99.90
55211;DHT22;41082;52.822;6.666;2023-02-03T06:01:38;9.30;99.90
55211;DHT22;41082;52.822;6.666;2023-02-03T06:04:04;9.30;99.90
55211;DHT22;41082;52.822;6.666;2023-02-03T06:06:30;9.30;99.90
55211;DHT22;41082;52.822;6.666;2023-02-03T06:09:04;9.20;99.90
55211;DHT22;41082;52.822;6.666;2023-02-03T06:11:30;9.20;99.90
55211;DHT22;41082;52.822;6.666;2023-02-03T06:13:57;9.30;99.90
55211;DHT22;41082;52.822;6.666;2023-02-03T06:16:24;9.30;99.90
55211;DHT22;41082;52.822;6.666;2023-02-03T06:18:51;9.40;99.90
55211;DHT22;41082;52.822;6.666;2023-02-03T06:21:17;9.40;99.90
55211;DHT22;41082;52.822;6.666;2023-02-03T06:23:43;9.40;99.90
55211;DHT22;41082;52.822;6.666;2023-02-03T06:26:08;9.50;99.90
55211;DHT22;41082;52.822;6.666;2023-02-03T06:28:34;9.50;99.90
55211;DHT22;41082;52.822;6.666;2023-02-03T06:30:59;9.60;99.90
55211;DHT22;41082;52.822;6.666;2023-02-03T06:33:25;9.60;99.90
55211;DHT22;41082;52.822;6.666;2023-02-03T06:35:52;9.60;99.90
55211;DHT22;41082;52.822;6.666;2023-02-03T06:38:18;9.60;99.90
55211;DHT22;41082;52.822;6.666;2023-02-03T06:40:46;9.70;99.90
55211;DHT22;41082;52.822;6.666;2023-02-03T06:43:12;9.60;99.90
55211;DHT22;41082;52.822;6.666;2023-02-03T06:45:37;9.60;99.90
55211;DHT22;41082;52.822;6.666;2023-02-03T06:48:03;9.60;99.90
55211;DHT22;41082;52.822;6.666;2023-02-03T06:50:29;9.60;99.90
55211;DHT22;41082;52.822;6.666;2023-02-03T06:52:54;9.60;99.90
55211;DHT22;41082;52.822;6.666;2023-02-03T06:55:20;9.70;99.90
55211;DHT22;41082;52.822;6.666;2023-02-03T06:57:46;9.60;99.90
55211;DHT22;41082;52.822;6.666;2023-02-03T07:00:14;9.60;99.90
55211;DHT22;41082;52.822;6.666;2023-02-03T07:02:40;9.60;99.90
55211;DHT22;41082;52.822;6.666;2023-02-03T07:05:05;9.70;99.90
55211;DHT22;41082;52.822;6.666;2023-02-03T07:07:31;9.60;99.90
55211;DHT22;41082;52.822;6.666;2023-02-03T07:09:59;9.60;99.90
55211;DHT22;41082;52.822;6.666;2023-02-03T07:12:24;9.70;99.90
55211;DHT22;41082;52.822;6.666;2023-02-03T07:14:50;9.70;99.90
55211;DHT22;41082;52.822;6.666;2023-02-03T07:17:15;9.70;99.90
55211;DHT22;41082;52.822;6.666;2023-02-03T07:19:41;9.70;99.90
55211;DHT22;41082;52.822;6.666;2023-02-03T07:22:07;9.60;99.90
55211;DHT22;41082;52.822;6.666;2023-02-03T07:24:33;9.70;99.90
55211;DHT22;41082;52.822;6.666;2023-02-03T07:26:59;9.60;99.90
55211;DHT22;41082;52.822;6.666;2023-02-03T07:29:24;9.60;99.90
55211;DHT22;41082;52.822;6.666;2023-02-03T07:31:50;9.60;99.90
55211;DHT22;41082;52.822;6.666;2023-02-03T07:34:15;9.50;99.90
55211;DHT22;41082;52.822;6.666;2023-02-03T07:36:41;9.50;99.90
55211;DHT22;41082;52.822;6.666;2023-02-03T07:39:07;9.60;99.90
55211;DHT22;41082;52.822;6.666;2023-02-03T07:41:32;9.50;99.90
55211;DHT22;41082;52.822;6.666;2023-02-03T07:43:58;9.50;99.90
55211;DHT22;41082;52.822;6.666;2023-02-03T07:46:23;9.60;99.90
55211;DHT22;41082;52.822;6.666;2023-02-03T07:48:49;9.60;99.90
55211;DHT22;41082;52.822;6.666;2023-02-03T07:51:14;9.50;99.90
55211;DHT22;41082;52.822;6.666;2023-02-03T07:53:40;9.50;99.90
55211;DHT22;41082;52.822;6.666;2023-02-03T07:56:06;9.50;99.90
55211;DHT22;41082;52.822;6.666;2023-02-03T07:58:32;9.50;99.90
55211;DHT22;41082;52.822;6.666;2023-02-03T08:00:58;9.50;99.90
55211;DHT22;41082;52.822;6.666;2023-02-03T08:03:23;9.50;99.90
55211;DHT22;41082;52.822;6.666;2023-02-03T08:05:49;9.50;99.90
55211;DHT22;41082;52.822;6.666;2023-02-03T08:08:15;9.50;99.90
55211;DHT22;41082;52.822;6.666;2023-02-03T08:10:41;9.60;99.90
55211;DHT22;41082;52.822;6.666;2023-02-03T08:13:06;9.70;99.90
55211;DHT22;41082;52.822;6.666;2023-02-03T08:15:32;9.70;99.90
55211;DHT22;41082;52.822;6.666;2023-02-03T08:17:58;9.60;99.90
55211;DHT22;41082;52.822;6.666;2023-02-03T08:20:23;9.60;99.90
55211;DHT22;41082;52.822;6.666;2023-02-03T08:22:49;9.60;99.90
55211;DHT22;41082;52.822;6.666;2023-02-03T08:25:15;9.60;99.90
55211;DHT22;41082;52.822;6.666;2023-02-03T08:27:40;9.60;99.90
55211;DHT22;41082;52.822;6.666;2023-02-03T08:30:08;9.60;99.90
55211;DHT22;41082;52.822;6.666;2023-02-03T08:32:34;9.50;99.90
55211;DHT22;41082;52.822;6.666;2023-02-03T08:35:00;9.50;99.90
55211;DHT22;41082;52.822;6.666;2023-02-03T08:37:25;9.50;99.90
55211;DHT22;41082;52.822;6.666;2023-02-03T08:39:52;9.50;99.90
55211;DHT22;41082;52.822;6.666;2023-02-03T08:42:18;9.50;99.90
55211;DHT22;41082;52.822;6.666;2023-02-03T08:44:44;9.50;99.90
55211;DHT22;41082;52.822;6.666;2023-02-03T08:47:10;9.50;99.90
55211;DHT22;41082;52.822;6.666;2023-02-03T08:49:37;9.60;99.90
55211;DHT22;41082;52.822;6.666;2023-02-03T08:52:05;9.60;99.90
55211;DHT22;41082;52.822;6.666;2023-02-03T08:54:32;9.60;99.90
55211;DHT22;41082;52.822;6.666;2023-02-03T08:56:58;9.60;99.90
55211;DHT22;41082;52.822;6.666;2023-02-03T08:59:24;9.60;99.90
55211;DHT22;41082;52.822;6.666;2023-02-03T09:01:50;9.60;99.90
55211;DHT22;41082;52.822;6.666;2023-02-03T09:04:17;9.70;99.90
55211;DHT22;41082;52.822;6.666;2023-02-03T09:06:45;9.70;99.90
55211;DHT22;41082;52.822;6.666;2023-02-03T09:09:13;9.60;99.90
55211;DHT22;41082;52.822;6.666;2023-02-03T09:11:40;9.70;99.90
55211;DHT22;41082;52.822;6.666;2023-02-03T09:14:06;9.70;99.90
55211;DHT22;41082;52.822;6.666;2023-02-03T09:16:32;9.70;99.90
55211;DHT22;41082;52.822;6.666;2023-02-03T09:18:58;9.70;99.90
55211;DHT22;41082;52.822;6.666;2023-02-03T09:21:23;9.70;99.90
55211;DHT22;41082;52.822;6.666;2023-02-03T09:23:49;9.80;99.90
55211;DHT22;41082;52.822;6.666;2023-02-03T09:26:15;9.80;99.90
55211;DHT22;41082;52.822;6.666;2023-02-03T09:28:40;9.80;99.90
55211;DHT22;41082;52.822;6.666;2023-02-03T09:31:08;9.90;99.90
55211;DHT22;41082;52.822;6.666;2023-02-03T09:33:34;9.90;99.90
55211;DHT22;41082;52.822;6.666;2023-02-03T09:36:00;9.90;99.90
55211;DHT22;41082;52.822;6.666;2023-02-03T09:38:27;9.90;99.90
55211;DHT22;41082;52.822;6.666;2023-02-03T09:41:00;9.90;99.90
55211;DHT22;41082;52.822;6.666;2023-02-03T09:43:31;10.00;99.90
55211;DHT22;41082;52.822;6.666;2023-02-03T09:46:15;10.00;99.90
55211;DHT22;41082;52.822;6.666;2023-02-03T09:48:51;10.10;99.90
55211;DHT22;41082;52.822;6.666;2023-02-03T09:54:37;10.00;99.90
55211;DHT22;41082;52.822;6.666;2023-02-03T09:57:14;10.00;99.90
55211;DHT22;41082;52.822;6.666;2023-02-03T09:59:42;10.10;99.90
55211;DHT22;41082;52.822;6.666;2023-02-03T10:05:13;10.10;99.90
55211;DHT22;41082;52.822;6.666;2023-02-03T10:07:54;10.10;99.90
55211;DHT22;41082;52.822;6.666;2023-02-03T10:10:41;10.20;99.90
55211;DHT22;41082;52.822;6.666;2023-02-03T10:13:26;10.20;99.90
55211;DHT22;41082;52.822;6.666;2023-02-03T10:16:34;10.20;99.90
55211;DHT22;41082;52.822;6.666;2023-02-03T10:19:09;10.20;99.90
55211;DHT22;41082;52.822;6.666;2023-02-03T10:21:42;10.30;99.90
55211;DHT22;41082;52.822;6.666;2023-02-03T10:24:20;10.30;99.90
55211;DHT22;41082;52.822;6.666;2023-02-03T10:26:47;10.30;99.90
55211;DHT22;41082;52.822;6.666;2023-02-03T10:29:35;10.30;99.90
55211;DHT22;41082;52.822;6.666;2023-02-03T10:32:13;10.30;99.90
55211;DHT22;41082;52.822;6.666;2023-02-03T10:34:41;10.30;99.90
55211;DHT22;41082;52.822;6.666;2023-02-03T10:37:34;10.30;99.90
55211;DHT22;41082;52.822;6.666;2023-02-03T10:40:03;10.30;99.90
55211;DHT22;41082;52.822;6.666;2023-02-03T10:42:30;10.30;99.90
55211;DHT22;41082;52.822;6.666;2023-02-03T10:45:17;10.30;99.90
55211;DHT22;41082;52.822;6.666;2023-02-03T10:47:47;10.30;99.90
55211;DHT22;41082;52.822;6.666;2023-02-03T10:50:17;10.30;99.90
55211;DHT22;41082;52.822;6.666;2023-02-03T10:52:43;10.30;99.90
55211;DHT22;41082;52.822;6.666;2023-02-03T10:57:50;10.10;99.90
55211;DHT22;41082;52.822;6.666;2023-02-03T11:00:26;10.20;99.90
55211;DHT22;41082;52.822;6.666;2023-02-03T11:05:31;10.20;99.90
55211;DHT22;41082;52.822;6.666;2023-02-03T11:07:57;10.20;99.90
55211;DHT22;41082;52.822;6.666;2023-02-03T11:10:34;10.20;99.90
55211;DHT22;41082;52.822;6.666;2023-02-03T11:13:21;10.30;99.90
55211;DHT22;41082;52.822;6.666;2023-02-03T11:18:45;10.30;99.90
55211;DHT22;41082;52.822;6.666;2023-02-03T11:24:13;10.40;99.90
55211;DHT22;41082;52.822;6.666;2023-02-03T11:26:45;10.40;99.90
55211;DHT22;41082;52.822;6.666;2023-02-03T11:29:23;10.30;99.90
55211;DHT22;41082;52.822;6.666;2023-02-03T11:31:51;10.30;99.90
55211;DHT22;41082;52.822;6.666;2023-02-03T11:34:21;10.30;99.90
55211;DHT22;41082;52.822;6.666;2023-02-03T11:36:48;10.30;99.90
55211;DHT22;41082;52.822;6.666;2023-02-03T11:39:23;10.30;99.90
55211;DHT22;41082;52.822;6.666;2023-02-03T11:41:49;10.30;99.90
55211;DHT22;41082;52.822;6.666;2023-02-03T11:44:26;10.30;99.90
55211;DHT22;41082;52.822;6.666;2023-02-03T11:47:01;10.20;99.90
55211;DHT22;41082;52.822;6.666;2023-02-03T11:49:34;10.20;99.90
55211;DHT22;41082;52.822;6.666;2023-02-03T11:58:13;10.10;99.90
55211;DHT22;41082;52.822;6.666;2023-02-03T12:00:57;10.10;99.90
55211;DHT22;41082;52.822;6.666;2023-02-03T12:06:31;10.10;99.90
55211;DHT22;41082;52.822;6.666;2023-02-03T12:09:21;10.10;99.90
55211;DHT22;41082;52.822;6.666;2023-02-03T12:12:19;10.10;99.90
55211;DHT22;41082;52.822;6.666;2023-02-03T12:25:51;10.00;99.90
55211;DHT22;41082;52.822;6.666;2023-02-03T12:34:35;10.00;99.90
55211;DHT22;41082;52.822;6.666;2023-02-03T12:37:08;9.90;99.90
55211;DHT22;41082;52.822;6.666;2023-02-03T12:39:41;9.90;99.90
55211;DHT22;41082;52.822;6.666;2023-02-03T12:44:59;9.90;99.90
55211;DHT22;41082;52.822;6.666;2023-02-03T12:47:46;9.90;99.90
55211;DHT22;41082;52.822;6.666;2023-02-03T12:50:34;9.90;99.90
55211;DHT22;41082;52.822;6.666;2023-02-03T12:55:51;9.80;99.90
55211;DHT22;41082;52.822;6.666;2023-02-03T12:58:30;9.80;99.90
55211;DHT22;41082;52.822;6.666;2023-02-03T13:01:19;9.80;99.90
55211;DHT22;41082;52.822;6.666;2023-02-03T13:04:28;9.80;99.90
55211;DHT22;41082;52.822;6.666;2023-02-03T13:07:11;9.70;99.90
55211;DHT22;41082;52.822;6.666;2023-02-03T13:09:56;9.80;99.90
55211;DHT22;41082;52.822;6.666;2023-02-03T13:12:30;9.70;99.90
55211;DHT22;41082;52.822;6.666;2023-02-03T13:17:35;9.70;99.90
55211;DHT22;41082;52.822;6.666;2023-02-03T13:20:27;9.70;99.90
55211;DHT22;41082;52.822;6.666;2023-02-03T13:22:56;9.70;99.90
55211;DHT22;41082;52.822;6.666;2023-02-03T13:42:23;9.70;99.90
55211;DHT22;41082;52.822;6.666;2023-02-03T13:44:54;9.70;99.90
55211;DHT22;41082;52.822;6.666;2023-02-03T13:47:24;9.70;99.90
55211;DHT22;41082;52.822;6.666;2023-02-03T13:49:58;9.70;99.90
55211;DHT22;41082;52.822;6.666;2023-02-03T13:52:43;9.70;99.90
55211;DHT22;41082;52.822;6.666;2023-02-03T13:55:26;9.60;99.90
55211;DHT22;41082;52.822;6.666;2023-02-03T13:57:53;9.60;99.90
55211;DHT22;41082;52.822;6.666;2023-02-03T14:00:56;9.70;99.90
55211;DHT22;41082;52.822;6.666;2023-02-03T14:05:52;9.60;99.90
55211;DHT22;41082;52.822;6.666;2023-02-03T14:16:42;9.50;99.90
55211;DHT22;41082;52.822;6.666;2023-02-03T14:21:56;9.50;99.90
55211;DHT22;41082;52.822;6.666;2023-02-03T14:24:47;9.50;99.90
55211;DHT22;41082;52.822;6.666;2023-02-03T14:27:27;9.40;99.90
55211;DHT22;41082;52.822;6.666;2023-02-03T14:30:11;9.40;99.90
55211;DHT22;41082;52.822;6.666;2023-02-03T14:32:58;9.40;99.90
55211;DHT22;41082;52.822;6.666;2023-02-03T14:35:36;9.30;99.90
55211;DHT22;41082;52.822;6.666;2023-02-03T14:38:07;9.40;99.90
55211;DHT22;41082;52.822;6.666;2023-02-03T14:40:47;9.30;99.90
55211;DHT22;41082;52.822;6.666;2023-02-03T14:43:38;9.30;99.90
55211;DHT22;41082;52.822;6.666;2023-02-03T14:48:55;9.30;99.90
55211;DHT22;41082;52.822;6.666;2023-02-03T14:51:50;9.20;99.90
55211;DHT22;41082;52.822;6.666;2023-02-03T14:54:37;9.20;99.90
55211;DHT22;41082;52.822;6.666;2023-02-03T15:08:35;9.20;99.90
55211;DHT22;41082;52.822;6.666;2023-02-03T15:11:22;9.10;99.90
55211;DHT22;41082;52.822;6.666;2023-02-03T15:13:48;9.10;99.90
55211;DHT22;41082;52.822;6.666;2023-02-03T15:16:21;9.10;99.90
55211;DHT22;41082;52.822;6.666;2023-02-03T15:18:59;9.10;99.90
55211;DHT22;41082;52.822;6.666;2023-02-03T15:21:25;9.10;99.90
55211;DHT22;41082;52.822;6.666;2023-02-03T15:23:51;9.10;99.90
55211;DHT22;41082;52.822;6.666;2023-02-03T15:29:00;9.10;99.90
55211;DHT22;41082;52.822;6.666;2023-02-03T15:31:36;9.10;99.90
55211;DHT22;41082;52.822;6.666;2023-02-03T15:34:20;9.10;99.90
55211;DHT22;41082;52.822;6.666;2023-02-03T15:36:49;9.10;99.90
55211;DHT22;41082;52.822;6.666;2023-02-03T15:39:41;9.10;99.90
55211;DHT22;41082;52.822;6.666;2023-02-03T15:42:14;9.10;99.90
55211;DHT22;41082;52.822;6.666;2023-02-03T15:44:53;9.10;99.90
55211;DHT22;41082;52.822;6.666;2023-02-03T15:47:29;9.00;99.90
55211;DHT22;41082;52.822;6.666;2023-02-03T15:50:26;9.00;99.90
55211;DHT22;41082;52.822;6.666;2023-02-03T15:52:56;9.00;99.90
55211;DHT22;41082;52.822;6.666;2023-02-03T15:55:37;8.90;99.90
55211;DHT22;41082;52.822;6.666;2023-02-03T15:58:15;8.90;99.90
55211;DHT22;41082;52.822;6.666;2023-02-03T16:00:42;8.80;99.90
55211;DHT22;41082;52.822;6.666;2023-02-03T16:03:21;8.80;99.90
55211;DHT22;41082;52.822;6.666;2023-02-03T16:05:49;8.80;99.90
55211;DHT22;41082;52.822;6.666;2023-02-03T16:08:40;8.80;99.90
55211;DHT22;41082;52.822;6.666;2023-02-03T16:11:30;8.80;99.90
55211;DHT22;41082;52.822;6.666;2023-02-03T16:13:58;8.70;99.90
55211;DHT22;41082;52.822;6.666;2023-02-03T16:16:50;8.70;99.90
55211;DHT22;41082;52.822;6.666;2023-02-03T16:19:21;8.70;99.90
55211;DHT22;41082;52.822;6.666;2023-02-03T16:29:56;8.60;99.90
55211;DHT22;41082;52.822;6.666;2023-02-03T16:33:18;8.60;99.90
55211;DHT22;41082;52.822;6.666;2023-02-03T16:36:11;8.60;99.90
55211;DHT22;41082;52.822;6.666;2023-02-03T16:38:57;8.60;99.90
55211;DHT22;41082;52.822;6.666;2023-02-03T16:41:44;8.60;99.90
55211;DHT22;41082;52.822;6.666;2023-02-03T16:44:28;8.50;99.90
55211;DHT22;41082;52.822;6.666;2023-02-03T16:47:21;8.50;99.90
55211;DHT22;41082;52.822;6.666;2023-02-03T16:50:10;8.50;99.90
55211;DHT22;41082;52.822;6.666;2023-02-03T16:52:54;8.50;99.90
55211;DHT22;41082;52.822;6.666;2023-02-03T16:55:20;8.50;99.90
55211;DHT22;41082;52.822;6.666;2023-02-03T16:57:46;8.40;99.90
55211;DHT22;41082;52.822;6.666;2023-02-03T17:00:12;8.40;99.90
55211;DHT22;41082;52.822;6.666;2023-02-03T17:02:37;8.40;99.90
55211;DHT22;41082;52.822;6.666;2023-02-03T17:05:03;8.40;99.90
55211;DHT22;41082;52.822;6.666;2023-02-03T17:07:28;8.40;99.90
55211;DHT22;41082;52.822;6.666;2023-02-03T17:09:54;8.40;99.90
55211;DHT22;41082;52.822;6.666;2023-02-03T17:12:20;8.30;99.90
55211;DHT22;41082;52.822;6.666;2023-02-03T17:14:45;8.30;99.90
55211;DHT22;41082;52.822;6.666;2023-02-03T17:17:11;8.30;99.90
55211;DHT22;41082;52.822;6.666;2023-02-03T17:19:36;8.30;99.90
55211;DHT22;41082;52.822;6.666;2023-02-03T17:22:02;8.30;99.90
55211;DHT22;41082;52.822;6.666;2023-02-03T17:24:27;8.20;99.90
55211;DHT22;41082;52.822;6.666;2023-02-03T17:26:53;8.20;99.90
55211;DHT22;41082;52.822;6.666;2023-02-03T17:29:19;8.20;99.90
55211;DHT22;41082;52.822;6.666;2023-02-03T17:31:44;8.20;99.90
55211;DHT22;41082;52.822;6.666;2023-02-03T17:34:11;8.30;99.90
55211;DHT22;41082;52.822;6.666;2023-02-03T17:36:36;8.20;99.90
55211;DHT22;41082;52.822;6.666;2023-02-03T17:39:02;8.30;99.90
55211;DHT22;41082;52.822;6.666;2023-02-03T17:41:27;8.30;99.90
55211;DHT22;41082;52.822;6.666;2023-02-03T17:43:53;8.30;99.90
55211;DHT22;41082;52.822;6.666;2023-02-03T17:46:23;8.30;99.90
55211;DHT22;41082;52.822;6.666;2023-02-03T17:48:49;8.20;99.90
55211;DHT22;41082;52.822;6.666;2023-02-03T17:51:20;8.20;99.90
55211;DHT22;41082;52.822;6.666;2023-02-03T17:53:47;8.20;99.90
55211;DHT22;41082;52.822;6.666;2023-02-03T17:56:17;8.30;99.90
55211;DHT22;41082;52.822;6.666;2023-02-03T17:58:43;8.20;99.90
55211;DHT22;41082;52.822;6.666;2023-02-03T18:01:13;8.20;99.90
55211;DHT22;41082;52.822;6.666;2023-02-03T18:06:08;8.10;99.90
55211;DHT22;41082;52.822;6.666;2023-02-03T18:08:34;8.10;99.90
55211;DHT22;41082;52.822;6.666;2023-02-03T18:11:00;8.10;99.90
55211;DHT22;41082;52.822;6.666;2023-02-03T18:13:26;8.00;99.90